»·PEaware :: TCF476 KPDX-KOTH

TCF476 :: KPDX-KOTH

FLIGHT INFORMATION

Flight Status: Arrived
Operator: Shuttle America
More flights by this operator :: More flights under this callsign
Pilot: Alex S. (7186)
Aircraft: EMBRAER EMB-170/175
(E170)
More flights by this aircraft type
Origin: KPDX Portland Intl
United States
Destination: KOTH North Bend Mun
United States
More flights between these airports :: More routes between these airports
Route: MINNE5 EASON OTH
File this flight plan on PilotEdge
Remarks: PBN / B2B3B4B5C1D1S2 DOF / 171029 REG / N170SB OPR / DAL PER / C RMK / TCAS SIMBRIEF
Altitude:
(Current/Filed)
16,000ft
Speed:
(Current/Filed)
407kts
Departed: 28-Oct-17 05:38 PM
Arrived: 28-Oct-17 06:18 PM
Distance/Time
Traveled:
148nm/0:40
Distance/Time
To Go:
Arrived

Flight Plot

Page will automatically refresh every two minutes.

Flight plan parsing failed; only flown route is shown


Map Options




Map Legend


Flown Route
Filed Route
Departure Airport
Arrival Airport
Navaid (VOR, NDB)
Fix

Horizontal Profiles

Position Reports

Time Latitude Longitude Heading Altitude Ground
Speed
28-Oct-17 17:22 45.591114 -122.594099 208 22ft 0kts
28-Oct-17 17:23 45.591114 -122.594099 208 22ft 0kts
28-Oct-17 17:24 45.591114 -122.594099 208 22ft 0kts
28-Oct-17 17:25 45.591114 -122.594099 208 22ft 0kts
28-Oct-17 17:26 45.591114 -122.594099 208 22ft 0kts
28-Oct-17 17:27 45.591114 -122.594099 208 22ft 0kts
28-Oct-17 17:28 45.591114 -122.594099 208 22ft 0kts
28-Oct-17 17:29 45.591114 -122.594099 208 22ft 0kts
28-Oct-17 17:30 45.591114 -122.594099 208 22ft 0kts
28-Oct-17 17:31 45.591114 -122.594099 208 22ft 0kts
28-Oct-17 17:32 45.591114 -122.594099 208 22ft 0kts
28-Oct-17 17:33 45.591114 -122.594099 208 22ft 0kts
28-Oct-17 17:34 45.591114 -122.594099 208 22ft 0kts
28-Oct-17 17:35 45.591114 -122.594099 208 22ft 0kts
28-Oct-17 17:36 45.591422 -122.593861 207 22ft 2kts
28-Oct-17 17:37 45.591752 -122.593156 298 22ft 1kts
28-Oct-17 17:38 45.591750 -122.593153 298 22ft 0kts
28-Oct-17 17:39 45.591753 -122.593160 298 22ft 0kts
28-Oct-17 17:40 45.592530 -122.595208 299 22ft 8kts
28-Oct-17 17:41 45.594113 -122.597959 30 22ft 10kts
28-Oct-17 17:42 45.594717 -122.597039 56 22ft 12kts
28-Oct-17 17:43 45.583868 -122.567649 119 422ft 155kts
28-Oct-17 17:44 45.573604 -122.512375 96 2129ft 169kts
28-Oct-17 17:45 45.561195 -122.431419 106 3481ft 243kts
28-Oct-17 17:46 45.541859 -122.354493 136 5802ft 250kts
28-Oct-17 17:47 45.481296 -122.319150 170 8314ft 259kts
28-Oct-17 17:48 45.422580 -122.361961 238 10567ft 279kts
28-Oct-17 17:49 45.382526 -122.471327 245 12051ft 330kts
28-Oct-17 17:50 45.343748 -122.590234 246 14607ft 341kts
28-Oct-17 17:51 45.304661 -122.713073 246 15971ft 372kts
28-Oct-17 17:52 45.252936 -122.840678 235 16228ft 377kts
28-Oct-17 17:53 45.186088 -122.954949 223 16206ft 379kts
28-Oct-17 17:54 45.095827 -123.031705 205 16202ft 384kts
28-Oct-17 17:55 44.995482 -123.084545 200 16203ft 389kts
28-Oct-17 17:56 44.894925 -123.133803 200 16204ft 390kts
28-Oct-17 17:57 44.794788 -123.182824 200 16192ft 390kts
28-Oct-17 17:58 44.693634 -123.232780 201 16197ft 389kts
28-Oct-17 17:59 44.592137 -123.283037 201 16199ft 389kts
28-Oct-17 18:00 44.491036 -123.335001 206 16199ft 388kts
28-Oct-17 18:01 44.397157 -123.406636 211 16199ft 387kts
28-Oct-17 18:02 44.304715 -123.481301 211 16199ft 387kts
28-Oct-17 18:03 44.212045 -123.554298 211 16199ft 387kts
28-Oct-17 18:04 44.118760 -123.626983 211 16206ft 387kts
28-Oct-17 18:05 44.026610 -123.699838 211 16282ft 386kts
28-Oct-17 18:06 43.935806 -123.771842 210 16178ft 385kts
28-Oct-17 18:07 43.844924 -123.841717 210 16434ft 385kts
28-Oct-17 18:08 43.758465 -123.908356 210 15681ft 366kts
28-Oct-17 18:09 43.676991 -123.969769 210 13390ft 334kts
28-Oct-17 18:10 43.615197 -124.042015 244 11112ft 286kts
28-Oct-17 18:11 43.581276 -124.137610 244 8870ft 266kts
28-Oct-17 18:12 43.549787 -124.227049 244 6889ft 258kts
28-Oct-17 18:13 43.519205 -124.314479 245 5907ft 255kts
28-Oct-17 18:14 43.489017 -124.401041 245 4794ft 248kts
28-Oct-17 18:15 43.461227 -124.480948 245 3630ft 217kts
28-Oct-17 18:16 43.427115 -124.542445 177 2417ft 216kts
28-Oct-17 18:17 43.374101 -124.509666 155 2046ft 196kts
28-Oct-17 18:18 43.340939 -124.460955 84 2009ft 183kts
28-Oct-17 18:19 43.357500 -124.400054 60 1952ft 149kts
28-Oct-17 18:20 43.377199 -124.351995 60 1492ft 131kts
28-Oct-17 18:21 43.395319 -124.307905 59 817ft 129kts
28-Oct-17 18:22 43.413153 -124.264521 60 87ft 129kts
28-Oct-17 18:23 43.420499 -124.246521 61 10ft 19kts
28-Oct-17 18:24 43.420712 -124.242919 237 10ft 8kts
28-Oct-17 18:25 43.418751 -124.247723 240 10ft 20kts
28-Oct-17 18:26 43.416934 -124.249004 157 10ft 6kts
28-Oct-17 18:27 43.416700 -124.249137 218 10ft 0kts

Navigation Log

Ident Type
Flight plan parsing failed, navigation log unavailable